sensor_id;sensor_type;location;lat;lon;timestamp;pressure;altitude;pressure_sealevel;temperature;humidity
6200;BME280;3133;43.214;27.906;2023-10-13T00:01:02;101062.00;;;13.94;100.00
6200;BME280;3133;43.214;27.906;2023-10-13T00:03:32;101105.59;;;14.19;100.00
6200;BME280;3133;43.214;27.906;2023-10-13T00:05:59;101094.25;;;14.14;100.00
6200;BME280;3133;43.214;27.906;2023-10-13T00:08:28;101059.38;;;13.94;100.00
6200;BME280;3133;43.214;27.906;2023-10-13T00:10:56;100990.56;;;13.50;100.00
6200;BME280;3133;43.214;27.906;2023-10-13T00:13:27;101078.63;;;13.85;100.00
6200;BME280;3133;43.214;27.906;2023-10-13T00:15:56;101088.19;;;14.00;100.00
6200;BME280;3133;43.214;27.906;2023-10-13T00:18:26;101084.69;;;14.01;100.00
6200;BME280;3133;43.214;27.906;2023-10-13T00:20:58;101086.44;;;13.99;100.00
6200;BME280;3133;43.214;27.906;2023-10-13T00:23:25;101077.69;;;13.99;100.00
6200;BME280;3133;43.214;27.906;2023-10-13T00:25:53;101082.94;;;13.99;100.00
6200;BME280;3133;43.214;27.906;2023-10-13T00:28:30;101082.06;;;13.98;100.00
6200;BME280;3133;43.214;27.906;2023-10-13T00:31:08;101083.88;;;13.90;100.00
6200;BME280;3133;43.214;27.906;2023-10-13T00:33:37;101080.38;;;13.91;100.00
6200;BME280;3133;43.214;27.906;2023-10-13T00:36:06;101068.22;;;13.72;100.00
6200;BME280;3133;43.214;27.906;2023-10-13T00:38:34;101068.19;;;13.76;100.00
6200;BME280;3133;43.214;27.906;2023-10-13T00:41:02;101008.91;;;13.47;100.00
6200;BME280;3133;43.214;27.906;2023-10-13T00:43:46;101073.41;;;13.89;100.00
6200;BME280;3133;43.214;27.906;2023-10-13T00:46:31;101076.00;;;13.89;100.00
6200;BME280;3133;43.214;27.906;2023-10-13T00:48:59;101072.50;;;13.90;100.00
6200;BME280;3133;43.214;27.906;2023-10-13T00:51:27;101063.78;;;13.88;100.00
6200;BME280;3133;43.214;27.906;2023-10-13T00:54:04;101063.78;;;13.86;100.00
6200;BME280;3133;43.214;27.906;2023-10-13T00:56:38;101066.41;;;13.83;100.00
6200;BME280;3133;43.214;27.906;2023-10-13T00:59:08;101060.38;;;13.72;100.00
6200;BME280;3133;43.214;27.906;2023-10-13T01:01:39;101063.84;;;13.78;100.00
6200;BME280;3133;43.214;27.906;2023-10-13T01:04:08;101042.03;;;13.66;100.00
6200;BME280;3133;43.214;27.906;2023-10-13T01:06:37;101052.50;;;13.73;100.00
6200;BME280;3133;43.214;27.906;2023-10-13T01:09:05;101069.09;;;13.66;100.00
6200;BME280;3133;43.214;27.906;2023-10-13T01:11:39;101064.75;;;13.70;100.00
6200;BME280;3133;43.214;27.906;2023-10-13T01:14:05;101029.84;;;13.56;100.00
6200;BME280;3133;43.214;27.906;2023-10-13T01:16:33;101057.75;;;13.72;100.00
6200;BME280;3133;43.214;27.906;2023-10-13T01:19:01;101056.00;;;13.71;100.00
6200;BME280;3133;43.214;27.906;2023-10-13T01:21:30;100991.50;;;13.34;100.00
6200;BME280;3133;43.214;27.906;2023-10-13T01:24:00;101049.00;;;13.68;100.00
6200;BME280;3133;43.214;27.906;2023-10-13T01:26:26;101053.38;;;13.68;100.00
6200;BME280;3133;43.214;27.906;2023-10-13T01:28:57;101030.72;;;13.52;100.00
6200;BME280;3133;43.214;27.906;2023-10-13T01:31:23;101028.13;;;13.43;100.00
6200;BME280;3133;43.214;27.906;2023-10-13T01:33:54;101043.91;;;13.26;100.00
6200;BME280;3133;43.214;27.906;2023-10-13T01:36:24;101046.50;;;13.35;100.00
6200;BME280;3133;43.214;27.906;2023-10-13T01:38:51;101043.88;;;13.38;100.00
6200;BME280;3133;43.214;27.906;2023-10-13T01:41:21;101022.97;;;13.17;100.00
6200;BME280;3133;43.214;27.906;2023-10-13T01:43:47;101046.50;;;13.37;100.00
6200;BME280;3133;43.214;27.906;2023-10-13T01:46:15;101034.31;;;13.28;100.00
6200;BME280;3133;43.214;27.906;2023-10-13T01:48:41;101042.16;;;13.30;100.00
6200;BME280;3133;43.214;27.906;2023-10-13T01:51:09;101045.63;;;13.36;100.00
6200;BME280;3133;43.214;27.906;2023-10-13T01:53:36;101026.44;;;13.25;100.00
6200;BME280;3133;43.214;27.906;2023-10-13T01:56:04;101016.00;;;13.18;100.00
6200;BME280;3133;43.214;27.906;2023-10-13T01:58:37;100947.09;;;12.78;100.00
6200;BME280;3133;43.214;27.906;2023-10-13T02:01:07;101040.41;;;13.30;100.00
6200;BME280;3133;43.214;27.906;2023-10-13T02:03:33;101039.53;;;13.30;100.00
6200;BME280;3133;43.214;27.906;2023-10-13T02:06:06;101000.28;;;13.02;100.00
6200;BME280;3133;43.214;27.906;2023-10-13T02:08:35;101040.41;;;13.29;100.00
6200;BME280;3133;43.214;27.906;2023-10-13T02:11:05;101026.50;;;13.08;100.00
6200;BME280;3133;43.214;27.906;2023-10-13T02:13:32;101040.41;;;13.26;100.00
6200;BME280;3133;43.214;27.906;2023-10-13T02:16:08;101038.66;;;13.28;100.00
6200;BME280;3133;43.214;27.906;2023-10-13T02:18:34;101038.69;;;13.19;100.00
6200;BME280;3133;43.214;27.906;2023-10-13T02:21:07;101037.81;;;13.21;100.00
6200;BME280;3133;43.214;27.906;2023-10-13T02:23:38;101043.94;;;13.17;100.00
6200;BME280;3133;43.214;27.906;2023-10-13T02:26:11;101042.22;;;13.05;100.00
6200;BME280;3133;43.214;27.906;2023-10-13T02:28:40;101020.38;;;12.87;100.00
6200;BME280;3133;43.214;27.906;2023-10-13T02:31:10;101040.47;;;12.77;100.00
6200;BME280;3133;43.214;27.906;2023-10-13T02:33:37;101043.97;;;12.64;100.00
6200;BME280;3133;43.214;27.906;2023-10-13T02:36:10;101002.97;;;12.51;100.00
6200;BME280;3133;43.214;27.906;2023-10-13T02:38:38;100909.69;;;11.99;100.00
6200;BME280;3133;43.214;27.906;2023-10-13T02:41:11;101015.19;;;12.39;100.00
6200;BME280;3133;43.214;27.906;2023-10-13T02:43:44;101044.81;;;12.63;100.00
6200;BME280;3133;43.214;27.906;2023-10-13T02:46:12;101043.06;;;12.70;100.00
6200;BME280;3133;43.214;27.906;2023-10-13T02:48:41;101038.72;;;12.67;100.00
6200;BME280;3133;43.214;27.906;2023-10-13T02:51:12;101039.59;;;12.71;100.00
6200;BME280;3133;43.214;27.906;2023-10-13T02:53:41;101033.50;;;12.73;100.00
6200;BME280;3133;43.214;27.906;2023-10-13T02:56:12;100971.59;;;12.47;100.00
6200;BME280;3133;43.214;27.906;2023-10-13T02:58:39;101035.22;;;12.89;100.00
6200;BME280;3133;43.214;27.906;2023-10-13T03:01:09;101035.22;;;12.85;100.00
6200;BME280;3133;43.214;27.906;2023-10-13T03:03:48;101035.22;;;12.76;100.00
6200;BME280;3133;43.214;27.906;2023-10-13T03:06:16;100981.19;;;12.23;100.00
6200;BME280;3133;43.214;27.906;2023-10-13T03:08:48;101033.50;;;12.49;100.00
6200;BME280;3133;43.214;27.906;2023-10-13T03:11:14;101032.63;;;12.62;100.00
6200;BME280;3133;43.214;27.906;2023-10-13T03:13:46;101025.63;;;12.36;100.00
6200;BME280;3133;43.214;27.906;2023-10-13T03:16:13;101008.22;;;12.30;100.00
6200;BME280;3133;43.214;27.906;2023-10-13T03:18:43;101032.59;;;12.46;100.00
6200;BME280;3133;43.214;27.906;2023-10-13T03:21:21;100986.41;;;12.19;100.00
6200;BME280;3133;43.214;27.906;2023-10-13T03:23:57;100973.31;;;12.02;100.00
6200;BME280;3133;43.214;27.906;2023-10-13T03:26:32;101026.50;;;12.36;100.00
6200;BME280;3133;43.214;27.906;2023-10-13T03:29:03;101030.88;;;12.45;100.00
6200;BME280;3133;43.214;27.906;2023-10-13T03:31:32;100968.09;;;12.08;100.00
6200;BME280;3133;43.214;27.906;2023-10-13T03:34:04;101004.66;;;11.99;100.00
6200;BME280;3133;43.214;27.906;2023-10-13T03:36:32;101023.03;;;12.28;100.00
6200;BME280;3133;43.214;27.906;2023-10-13T03:39:23;101026.50;;;12.30;100.00
6200;BME280;3133;43.214;27.906;2023-10-13T03:41:57;101009.97;;;12.32;100.00
6200;BME280;3133;43.214;27.906;2023-10-13T03:44:25;101010.81;;;12.39;100.00
6200;BME280;3133;43.214;27.906;2023-10-13T03:46:56;101008.19;;;12.36;100.00
6200;BME280;3133;43.214;27.906;2023-10-13T03:49:30;100906.19;;;11.73;100.00
6200;BME280;3133;43.214;27.906;2023-10-13T03:52:03;101017.78;;;12.40;100.00
6200;BME280;3133;43.214;27.906;2023-10-13T03:54:31;101023.91;;;12.47;100.00
6200;BME280;3133;43.214;27.906;2023-10-13T03:57:01;101005.56;;;12.27;100.00
6200;BME280;3133;43.214;27.906;2023-10-13T03:59:36;101007.34;;;12.28;100.00
6200;BME280;3133;43.214;27.906;2023-10-13T04:02:05;101022.16;;;12.26;100.00
6200;BME280;3133;43.214;27.906;2023-10-13T04:04:37;101012.56;;;12.23;100.00
6200;BME280;3133;43.214;27.906;2023-10-13T04:07:15;101021.28;;;12.24;100.00
6200;BME280;3133;43.214;27.906;2023-10-13T04:09:59;100971.56;;;12.03;100.00
6200;BME280;3133;43.214;27.906;2023-10-13T04:12:44;101014.28;;;12.17;100.00
6200;BME280;3133;43.214;27.906;2023-10-13T04:15:28;101015.16;;;12.16;100.00
6200;BME280;3133;43.214;27.906;2023-10-13T04:18:05;101033.50;;;12.32;100.00
6200;BME280;3133;43.214;27.906;2023-10-13T04:20:43;101025.66;;;12.43;100.00
6200;BME280;3133;43.214;27.906;2023-10-13T04:23:13;101003.84;;;12.27;100.00
6200;BME280;3133;43.214;27.906;2023-10-13T04:25:44;100979.44;;;12.15;100.00
6200;BME280;3133;43.214;27.906;2023-10-13T04:28:28;101036.97;;;12.48;100.00
6200;BME280;3133;43.214;27.906;2023-10-13T04:31:03;101019.53;;;12.29;100.00
6200;BME280;3133;43.214;27.906;2023-10-13T04:33:38;101024.78;;;12.26;100.00
6200;BME280;3133;43.214;27.906;2023-10-13T04:36:18;101049.16;;;12.26;100.00
6200;BME280;3133;43.214;27.906;2023-10-13T04:39:03;101056.13;;;12.17;100.00
6200;BME280;3133;43.214;27.906;2023-10-13T04:41:35;101063.09;;;12.16;100.00
6200;BME280;3133;43.214;27.906;2023-10-13T04:44:05;101061.34;;;12.12;100.00
6200;BME280;3133;43.214;27.906;2023-10-13T04:46:49;101063.94;;;12.00;100.00
6200;BME280;3133;43.214;27.906;2023-10-13T04:49:39;100987.09;;;11.53;100.00
6200;BME280;3133;43.214;27.906;2023-10-13T04:52:17;101036.00;;;11.96;100.00
6200;BME280;3133;43.214;27.906;2023-10-13T04:55:12;101061.31;;;12.05;100.00
6200;BME280;3133;43.214;27.906;2023-10-13T04:57:59;101062.22;;;12.20;100.00
6200;BME280;3133;43.214;27.906;2023-10-13T05:00:40;101063.97;;;12.29;100.00
6200;BME280;3133;43.214;27.906;2023-10-13T05:03:34;101055.22;;;12.12;100.00
6200;BME280;3133;43.214;27.906;2023-10-13T05:06:18;101063.97;;;12.35;100.00
6200;BME280;3133;43.214;27.906;2023-10-13T05:09:03;101036.06;;;12.26;100.00
6200;BME280;3133;43.214;27.906;2023-10-13T05:11:48;101048.31;;;12.32;100.00
6200;BME280;3133;43.214;27.906;2023-10-13T05:14:32;101071.00;;;12.65;100.00
6200;BME280;3133;43.214;27.906;2023-10-13T05:17:16;101078.81;;;12.42;100.00
6200;BME280;3133;43.214;27.906;2023-10-13T05:20:02;101078.81;;;12.44;100.00
6200;BME280;3133;43.214;27.906;2023-10-13T05:22:58;101075.34;;;12.57;100.00
6200;BME280;3133;43.214;27.906;2023-10-13T05:25:42;101072.72;;;12.63;100.00
6200;BME280;3133;43.214;27.906;2023-10-13T05:28:28;100954.97;;;11.77;100.00
6200;BME280;3133;43.214;27.906;2023-10-13T05:31:12;101044.84;;;12.56;100.00
6200;BME280;3133;43.214;27.906;2023-10-13T05:33:57;101055.31;;;12.81;100.00
6200;BME280;3133;43.214;27.906;2023-10-13T05:36:55;101057.91;;;12.96;100.00
6200;BME280;3133;43.214;27.906;2023-10-13T05:39:40;101053.53;;;13.06;100.00
6200;BME280;3133;43.214;27.906;2023-10-13T05:42:24;101059.63;;;13.19;100.00
6200;BME280;3133;43.214;27.906;2023-10-13T05:45:10;101067.47;;;13.34;100.00
6200;BME280;3133;43.214;27.906;2023-10-13T05:48:23;101097.16;;;13.28;100.00
6200;BME280;3133;43.214;27.906;2023-10-13T05:51:06;101024.75;;;12.89;100.00
6200;BME280;3133;43.214;27.906;2023-10-13T05:53:51;101114.53;;;13.59;100.00
6200;BME280;3133;43.214;27.906;2023-10-13T05:56:35;101103.16;;;13.68;100.00
6200;BME280;3133;43.214;27.906;2023-10-13T05:59:20;100941.03;;;12.74;100.00
6200;BME280;3133;43.214;27.906;2023-10-13T06:02:06;101060.47;;;13.42;100.00
6200;BME280;3133;43.214;27.906;2023-10-13T06:04:50;101079.66;;;13.48;100.00
6200;BME280;3133;43.214;27.906;2023-10-13T06:07:34;101121.41;;;13.98;100.00
6200;BME280;3133;43.214;27.906;2023-10-13T06:10:18;100959.28;;;13.03;100.00
6200;BME280;3133;43.214;27.906;2023-10-13T06:13:02;101119.66;;;14.06;100.00
6200;BME280;3133;43.214;27.906;2023-10-13T06:15:46;101109.16;;;14.06;100.00
6200;BME280;3133;43.214;27.906;2023-10-13T06:18:32;101120.50;;;14.07;100.00
6200;BME280;3133;43.214;27.906;2023-10-13T06:21:16;101122.16;;;14.27;100.00
6200;BME280;3133;43.214;27.906;2023-10-13T06:24:00;101110.78;;;14.34;100.00
6200;BME280;3133;43.214;27.906;2023-10-13T06:26:47;101134.41;;;14.34;100.00
6200;BME280;3133;43.214;27.906;2023-10-13T06:29:31;101088.13;;;14.14;100.00
6200;BME280;3133;43.214;27.906;2023-10-13T06:31:58;101133.41;;;14.52;100.00
6200;BME280;3133;43.214;27.906;2023-10-13T06:34:28;101101.91;;;14.52;100.00
6200;BME280;3133;43.214;27.906;2023-10-13T06:37:04;101132.28;;;14.86;100.00
6200;BME280;3133;43.214;27.906;2023-10-13T06:39:47;101136.63;;;14.93;100.00
6200;BME280;3133;43.214;27.906;2023-10-13T06:42:14;101088.63;;;14.75;100.00
6200;BME280;3133;43.214;27.906;2023-10-13T06:44:42;101057.19;;;14.69;100.00
6200;BME280;3133;43.214;27.906;2023-10-13T06:47:11;101050.94;;;14.80;100.00
6200;BME280;3133;43.214;27.906;2023-10-13T06:49:40;101085.69;;;15.11;100.00
6200;BME280;3133;43.214;27.906;2023-10-13T06:52:09;101129.16;;;15.48;100.00
6200;BME280;3133;43.214;27.906;2023-10-13T06:54:36;101133.38;;;15.61;100.00
6200;BME280;3133;43.214;27.906;2023-10-13T06:57:04;100967.78;;;14.81;100.00
6200;BME280;3133;43.214;27.906;2023-10-13T06:59:32;101129.59;;;15.86;100.00
6200;BME280;3133;43.214;27.906;2023-10-13T07:02:01;101127.06;;;15.80;100.00
6200;BME280;3133;43.214;27.906;2023-10-13T07:04:31;101076.59;;;15.48;100.00
6200;BME280;3133;43.214;27.906;2023-10-13T07:06:59;101101.66;;;15.76;100.00
6200;BME280;3133;43.214;27.906;2023-10-13T07:09:29;101136.34;;;16.07;100.00
6200;BME280;3133;43.214;27.906;2023-10-13T07:12:06;101104.88;;;15.99;100.00
6200;BME280;3133;43.214;27.906;2023-10-13T07:14:45;101137.78;;;16.31;100.00
6200;BME280;3133;43.214;27.906;2023-10-13T07:17:17;100936.81;;;15.10;100.00
6200;BME280;3133;43.214;27.906;2023-10-13T07:19:50;101143.03;;;16.34;100.00
6200;BME280;3133;43.214;27.906;2023-10-13T07:22:24;101146.28;;;16.54;100.00
6200;BME280;3133;43.214;27.906;2023-10-13T07:24:53;101141.00;;;16.54;100.00
6200;BME280;3133;43.214;27.906;2023-10-13T07:27:23;101144.44;;;16.62;100.00
6200;BME280;3133;43.214;27.906;2023-10-13T07:29:51;101134.56;;;16.73;100.00
6200;BME280;3133;43.214;27.906;2023-10-13T07:32:23;101141.31;;;16.91;100.00
6200;BME280;3133;43.214;27.906;2023-10-13T07:34:54;101148.09;;;17.07;100.00
6200;BME280;3133;43.214;27.906;2023-10-13T07:37:24;101096.56;;;16.89;100.00
6200;BME280;3133;43.214;27.906;2023-10-13T07:39:54;101139.09;;;17.20;100.00
6200;BME280;3133;43.214;27.906;2023-10-13T07:42:24;101061.41;;;16.90;100.00
6200;BME280;3133;43.214;27.906;2023-10-13T07:44:58;100943.00;;;16.31;100.00
6200;BME280;3133;43.214;27.906;2023-10-13T07:47:29;101135.09;;;17.46;100.00
6200;BME280;3133;43.214;27.906;2023-10-13T07:49:58;100982.66;;;16.75;100.00
6200;BME280;3133;43.214;27.906;2023-10-13T07:52:26;101065.84;;;17.35;100.00
6200;BME280;3133;43.214;27.906;2023-10-13T07:55:03;101094.59;;;17.49;100.00
6200;BME280;3133;43.214;27.906;2023-10-13T07:57:39;101128.25;;;17.84;100.00
6200;BME280;3133;43.214;27.906;2023-10-13T08:00:20;101027.09;;;17.40;100.00
6200;BME280;3133;43.214;27.906;2023-10-13T08:02:58;101126.94;;;18.04;100.00
6200;BME280;3133;43.214;27.906;2023-10-13T08:05:35;101132.81;;;18.17;100.00
6200;BME280;3133;43.214;27.906;2023-10-13T08:08:23;101117.06;;;18.14;100.00
6200;BME280;3133;43.214;27.906;2023-10-13T08:10:51;101051.03;;;17.76;100.00
6200;BME280;3133;43.214;27.906;2023-10-13T08:13:21;101081.22;;;18.04;100.00
6200;BME280;3133;43.214;27.906;2023-10-13T08:15:49;101128.06;;;18.34;100.00
6200;BME280;3133;43.214;27.906;2023-10-13T08:18:18;101069.69;;;18.08;100.00
6200;BME280;3133;43.214;27.906;2023-10-13T08:20:56;101126.72;;;18.56;100.00
6200;BME280;3133;43.214;27.906;2023-10-13T08:23:30;101133.41;;;18.72;100.00
6200;BME280;3133;43.214;27.906;2023-10-13T08:26:16;101065.50;;;18.37;100.00
6200;BME280;3133;43.214;27.906;2023-10-13T08:28:58;101063.25;;;18.59;100.00
6200;BME280;3133;43.214;27.906;2023-10-13T08:31:45;101131.41;;;19.15;100.00
6200;BME280;3133;43.214;27.906;2023-10-13T08:34:31;101123.19;;;19.28;100.00
6200;BME280;3133;43.214;27.906;2023-10-13T08:37:20;101035.19;;;18.89;100.00
6200;BME280;3133;43.214;27.906;2023-10-13T08:39:56;101126.72;;;19.62;100.00
6200;BME280;3133;43.214;27.906;2023-10-13T08:42:40;101049.13;;;19.28;100.00
6200;BME280;3133;43.214;27.906;2023-10-13T08:45:18;101068.66;;;19.56;100.00
6200;BME280;3133;43.214;27.906;2023-10-13T08:48:08;101136.78;;;20.11;100.00
6200;BME280;3133;43.214;27.906;2023-10-13T08:50:43;101106.63;;;20.15;100.00
6200;BME280;3133;43.214;27.906;2023-10-13T08:53:19;101136.44;;;20.52;100.00
6200;BME280;3133;43.214;27.906;2023-10-13T08:55:56;101133.38;;;20.66;100.00
6200;BME280;3133;43.214;27.906;2023-10-13T08:58:40;101123.13;;;20.55;100.00
6200;BME280;3133;43.214;27.906;2023-10-13T09:01:26;101090.19;;;20.04;100.00
6200;BME280;3133;43.214;27.906;2023-10-13T09:04:12;101104.56;;;20.26;100.00
6200;BME280;3133;43.214;27.906;2023-10-13T09:06:49;101095.00;;;20.49;100.00
6200;BME280;3133;43.214;27.906;2023-10-13T09:09:47;101076.09;;;20.60;100.00
6200;BME280;3133;43.214;27.906;2023-10-13T09:12:38;101071.84;;;20.82;100.00
6200;BME280;3133;43.214;27.906;2023-10-13T09:15:30;101122.19;;;21.36;100.00
6200;BME280;3133;43.214;27.906;2023-10-13T09:18:10;101123.94;;;21.62;100.00
6200;BME280;3133;43.214;27.906;2023-10-13T09:20:40;101079.06;;;21.54;100.00
6200;BME280;3133;43.214;27.906;2023-10-13T09:23:13;101111.91;;;21.76;100.00
6200;BME280;3133;43.214;27.906;2023-10-13T09:25:49;101069.44;;;21.27;100.00
6200;BME280;3133;43.214;27.906;2023-10-13T09:28:28;101098.38;;;21.34;100.00
6200;BME280;3133;43.214;27.906;2023-10-13T09:30:55;101088.88;;;21.27;100.00
6200;BME280;3133;43.214;27.906;2023-10-13T09:33:25;101126.22;;;21.72;100.00
6200;BME280;3133;43.214;27.906;2023-10-13T09:35:58;101129.44;;;21.80;100.00
6200;BME280;3133;43.214;27.906;2023-10-13T09:38:27;101108.06;;;21.85;100.00
6200;BME280;3133;43.214;27.906;2023-10-13T09:40:53;101123.59;;;21.95;100.00
6200;BME280;3133;43.214;27.906;2023-10-13T09:43:23;101117.41;;;21.95;100.00
6200;BME280;3133;43.214;27.906;2023-10-13T09:45:50;101041.69;;;21.60;100.00
6200;BME280;3133;43.214;27.906;2023-10-13T09:48:37;101118.34;;;22.17;100.00
6200;BME280;3133;43.214;27.906;2023-10-13T09:51:11;100868.91;;;20.23;100.00
6200;BME280;3133;43.214;27.906;2023-10-13T09:53:40;100990.31;;;21.13;100.00
6200;BME280;3133;43.214;27.906;2023-10-13T09:56:12;101101.44;;;21.96;100.00
6200;BME280;3133;43.214;27.906;2023-10-13T09:58:48;101067.41;;;22.06;100.00
6200;BME280;3133;43.214;27.906;2023-10-13T10:01:24;101099.78;;;22.39;100.00
6200;BME280;3133;43.214;27.906;2023-10-13T10:04:10;101045.25;;;22.07;100.00
6200;BME280;3133;43.214;27.906;2023-10-13T10:06:39;101090.06;;;22.38;100.00
6200;BME280;3133;43.214;27.906;2023-10-13T10:09:11;101086.41;;;22.42;100.00
6200;BME280;3133;43.214;27.906;2023-10-13T10:15:06;101065.94;;;22.21;100.00
6200;BME280;3133;43.214;27.906;2023-10-13T10:17:41;101063.59;;;22.13;100.00
6200;BME280;3133;43.214;27.906;2023-10-13T10:20:08;101023.44;;;21.74;100.00
6200;BME280;3133;43.214;27.906;2023-10-13T10:22:55;100939.47;;;20.76;100.00
6200;BME280;3133;43.214;27.906;2023-10-13T10:25:29;100966.72;;;21.06;100.00
6200;BME280;3133;43.214;27.906;2023-10-13T10:28:01;101084.22;;;21.83;100.00
6200;BME280;3133;43.214;27.906;2023-10-13T10:30:31;101046.84;;;21.15;100.00
6200;BME280;3133;43.214;27.906;2023-10-13T10:33:01;101037.31;;;20.57;100.00
6200;BME280;3133;43.214;27.906;2023-10-13T10:35:35;101078.25;;;20.75;100.00
6200;BME280;3133;43.214;27.906;2023-10-13T10:38:10;101074.66;;;20.78;100.00
6200;BME280;3133;43.214;27.906;2023-10-13T10:40:53;101075.34;;;20.29;100.00
6200;BME280;3133;43.214;27.906;2023-10-13T10:43:27;101086.50;;;20.40;100.00
6200;BME280;3133;43.214;27.906;2023-10-13T10:45:56;100891.84;;;19.39;100.00
6200;BME280;3133;43.214;27.906;2023-10-13T10:48:27;101031.38;;;20.49;100.00
6200;BME280;3133;43.214;27.906;2023-10-13T10:51:00;100969.69;;;20.46;100.00
6200;BME280;3133;43.214;27.906;2023-10-13T10:53:39;101068.47;;;21.29;100.00
6200;BME280;3133;43.214;27.906;2023-10-13T10:56:10;101062.56;;;21.46;100.00
6200;BME280;3133;43.214;27.906;2023-10-13T10:58:47;101059.84;;;21.48;100.00
6200;BME280;3133;43.214;27.906;2023-10-13T11:01:14;101068.75;;;21.70;100.00
6200;BME280;3133;43.214;27.906;2023-10-13T11:03:58;101029.56;;;21.53;100.00
6200;BME280;3133;43.214;27.906;2023-10-13T11:06:33;101020.41;;;21.62;100.00
6200;BME280;3133;43.214;27.906;2023-10-13T11:09:04;100964.88;;;21.08;100.00
6200;BME280;3133;43.214;27.906;2023-10-13T11:11:45;101028.50;;;21.09;100.00
6200;BME280;3133;43.214;27.906;2023-10-13T11:14:21;101058.47;;;21.11;100.00
6200;BME280;3133;43.214;27.906;2023-10-13T11:16:50;101058.47;;;21.11;100.00
6200;BME280;3133;43.214;27.906;2023-10-13T11:19:36;101057.00;;;21.03;100.00
6200;BME280;3133;43.214;27.906;2023-10-13T11:22:13;100932.28;;;20.55;100.00
6200;BME280;3133;43.214;27.906;2023-10-13T11:32:32;101047.19;;;21.56;100.00
6200;BME280;3133;43.214;27.906;2023-10-13T11:38:35;101052.72;;;21.73;100.00
6200;BME280;3133;43.214;27.906;2023-10-13T11:44:31;101061.75;;;21.44;100.00
6200;BME280;3133;43.214;27.906;2023-10-13T11:50:31;101057.38;;;21.18;100.00
6200;BME280;3133;43.214;27.906;2023-10-13T12:03:09;101056.84;;;20.55;100.00
6200;BME280;3133;43.214;27.906;2023-10-13T12:06:00;101048.88;;;20.27;100.00
6200;BME280;3133;43.214;27.906;2023-10-13T12:12:05;101053.19;;;20.31;100.00
6200;BME280;3133;43.214;27.906;2023-10-13T12:14:33;101052.31;;;20.31;100.00
6200;BME280;3133;43.214;27.906;2023-10-13T12:20:26;101047.03;;;20.31;100.00
6200;BME280;3133;43.214;27.906;2023-10-13T12:23:01;101055.19;;;20.23;100.00
6200;BME280;3133;43.214;27.906;2023-10-13T12:26:11;101050.72;;;20.25;100.00
6200;BME280;3133;43.214;27.906;2023-10-13T12:32:06;101050.38;;;20.07;100.00
6200;BME280;3133;43.214;27.906;2023-10-13T12:34:35;101045.16;;;20.05;100.00
6200;BME280;3133;43.214;27.906;2023-10-13T12:40:42;101050.88;;;20.19;100.00
6200;BME280;3133;43.214;27.906;2023-10-13T12:43:28;101048.84;;;20.29;100.00
6200;BME280;3133;43.214;27.906;2023-10-13T12:49:34;101047.34;;;20.20;100.00
6200;BME280;3133;43.214;27.906;2023-10-13T12:55:44;101048.50;;;20.10;100.00
6200;BME280;3133;43.214;27.906;2023-10-13T13:01:33;101053.16;;;20.02;100.00
6200;BME280;3133;43.214;27.906;2023-10-13T13:07:21;101044.91;;;19.83;100.00
6200;BME280;3133;43.214;27.906;2023-10-13T13:09:49;101043.28;;;19.79;100.00
6200;BME280;3133;43.214;27.906;2023-10-13T13:15:38;101038.66;;;19.86;100.00
6200;BME280;3133;43.214;27.906;2023-10-13T13:18:12;101034.09;;;19.91;100.00
6200;BME280;3133;43.214;27.906;2023-10-13T13:24:00;101041.94;;;19.94;100.00
6200;BME280;3133;43.214;27.906;2023-10-13T13:26:29;101042.97;;;19.90;100.00
6200;BME280;3133;43.214;27.906;2023-10-13T13:32:19;101040.31;;;19.90;100.00
6200;BME280;3133;43.214;27.906;2023-10-13T13:34:54;101049.94;;;19.93;100.00
6200;BME280;3133;43.214;27.906;2023-10-13T13:40:51;101035.28;;;19.81;100.00
6200;BME280;3133;43.214;27.906;2023-10-13T13:43:25;100970.53;;;19.33;100.00
6200;BME280;3133;43.214;27.906;2023-10-13T13:49:28;101029.03;;;19.83;100.00
6200;BME280;3133;43.214;27.906;2023-10-13T13:52:06;101039.50;;;19.86;100.00
6200;BME280;3133;43.214;27.906;2023-10-13T14:04:12;101031.44;;;19.62;100.00
6200;BME280;3133;43.214;27.906;2023-10-13T14:10:06;101037.09;;;19.79;100.00
6200;BME280;3133;43.214;27.906;2023-10-13T14:12:41;101036.28;;;19.77;100.00
6200;BME280;3133;43.214;27.906;2023-10-13T14:18:29;101041.56;;;19.77;100.00
6200;BME280;3133;43.214;27.906;2023-10-13T14:21:00;101039.00;;;19.74;100.00
6200;BME280;3133;43.214;27.906;2023-10-13T14:27:00;101035.97;;;19.87;100.00
6200;BME280;3133;43.214;27.906;2023-10-13T14:29:33;101030.25;;;19.72;100.00
6200;BME280;3133;43.214;27.906;2023-10-13T14:32:42;101033.53;;;19.80;100.00
6200;BME280;3133;43.214;27.906;2023-10-13T14:41:40;101033.16;;;19.63;100.00
6200;BME280;3133;43.214;27.906;2023-10-13T14:47:30;101031.63;;;19.56;100.00
6200;BME280;3133;43.214;27.906;2023-10-13T14:53:18;101047.63;;;19.51;100.00
6200;BME280;3133;43.214;27.906;2023-10-13T14:56:23;101055.50;;;19.53;100.00
6200;BME280;3133;43.214;27.906;2023-10-13T15:11:43;101054.91;;;19.43;100.00
6200;BME280;3133;43.214;27.906;2023-10-13T15:14:19;101049.69;;;19.40;100.00
6200;BME280;3133;43.214;27.906;2023-10-13T15:20:10;101050.75;;;19.35;100.00
6200;BME280;3133;43.214;27.906;2023-10-13T15:28:33;101050.72;;;19.33;100.00
6200;BME280;3133;43.214;27.906;2023-10-13T15:34:21;101061.31;;;19.35;100.00
6200;BME280;3133;43.214;27.906;2023-10-13T15:36:49;101045.56;;;19.29;100.00
6200;BME280;3133;43.214;27.906;2023-10-13T15:46:02;101048.25;;;19.27;100.00
6200;BME280;3133;43.214;27.906;2023-10-13T15:48:38;101059.88;;;19.22;100.00
6200;BME280;3133;43.214;27.906;2023-10-13T15:54:26;101071.34;;;19.21;100.00